sensor_id;sensor_type;location;lat;lon;timestamp;P1;durP1;ratioP1;P2;durP2;ratioP2
85301;SDS011;75707;46.948;7.410;2024-03-06T00:00:52;0.400000006;;;0.300000012;;
85301;SDS011;75707;46.948;7.410;2024-03-06T00:01:53;0.600000024;;;0.600000024;;
85301;SDS011;75707;46.948;7.410;2024-03-06T00:02:54;0.400000006;;;0.400000006;;
85301;SDS011;75707;46.948;7.410;2024-03-06T00:03:54;0.5;;;0.5;;
85301;SDS011;75707;46.948;7.410;2024-03-06T00:04:56;0.899999976;;;0.400000006;;
85301;SDS011;75707;46.948;7.410;2024-03-06T00:07:28;0.600000024;;;0.400000006;;
85301;SDS011;75707;46.948;7.410;2024-03-06T00:08:28;0.400000006;;;0.400000006;;
85301;SDS011;75707;46.948;7.410;2024-03-06T00:09:29;1;;;0.5;;
85301;SDS011;75707;46.948;7.410;2024-03-06T00:10:30;1.5;;;0.600000024;;
85301;SDS011;75707;46.948;7.410;2024-03-06T00:11:30;0.600000024;;;0.600000024;;
85301;SDS011;75707;46.948;7.410;2024-03-06T00:12:31;0.899999976;;;0.400000006;;
85301;SDS011;75707;46.948;7.410;2024-03-06T00:13:32;0.899999976;;;0.600000024;;
85301;SDS011;75707;46.948;7.410;2024-03-06T00:14:33;0.699999988;;;0.400000006;;
85301;SDS011;75707;46.948;7.410;2024-03-06T00:15:33;1.100000024;;;0.600000024;;
85301;SDS011;75707;46.948;7.410;2024-03-06T00:16:34;1.5;;;0.400000006;;
85301;SDS011;75707;46.948;7.410;2024-03-06T00:17:35;0.699999988;;;0.699999988;;
85301;SDS011;75707;46.948;7.410;2024-03-06T00:18:35;0.800000012;;;0.5;;
85301;SDS011;75707;46.948;7.410;2024-03-06T00:19:36;1.399999976;;;0.5;;
85301;SDS011;75707;46.948;7.410;2024-03-06T00:20:37;0.800000012;;;0.5;;
85301;SDS011;75707;46.948;7.410;2024-03-06T00:21:37;0.600000024;;;0.600000024;;
85301;SDS011;75707;46.948;7.410;2024-03-06T00:22:38;0.800000012;;;0.699999988;;
85301;SDS011;75707;46.948;7.410;2024-03-06T00:23:39;1.100000024;;;0.5;;
85301;SDS011;75707;46.948;7.410;2024-03-06T00:24:39;2.299999952;;;0.699999988;;
85301;SDS011;75707;46.948;7.410;2024-03-06T00:25:40;1;;;0.600000024;;
85301;SDS011;75707;46.948;7.410;2024-03-06T00:26:41;1.299999952;;;0.699999988;;
85301;SDS011;75707;46.948;7.410;2024-03-06T00:27:41;1.200000048;;;0.600000024;;
85301;SDS011;75707;46.948;7.410;2024-03-06T00:28:42;0.699999988;;;0.5;;
85301;SDS011;75707;46.948;7.410;2024-03-06T00:29:43;0.800000012;;;0.5;;
85301;SDS011;75707;46.948;7.410;2024-03-06T00:30:43;0.600000024;;;0.5;;
85301;SDS011;75707;46.948;7.410;2024-03-06T00:31:44;1.600000024;;;0.600000024;;
85301;SDS011;75707;46.948;7.410;2024-03-06T00:32:45;1;;;0.699999988;;
85301;SDS011;75707;46.948;7.410;2024-03-06T00:33:45;1;;;0.600000024;;
85301;SDS011;75707;46.948;7.410;2024-03-06T00:34:46;1.200000048;;;0.800000012;;
85301;SDS011;75707;46.948;7.410;2024-03-06T00:35:47;1;;;0.800000012;;
85301;SDS011;75707;46.948;7.410;2024-03-06T00:36:48;0.600000024;;;0.600000024;;
85301;SDS011;75707;46.948;7.410;2024-03-06T00:37:48;0.899999976;;;0.699999988;;
85301;SDS011;75707;46.948;7.410;2024-03-06T00:38:49;0.5;;;0.5;;
85301;SDS011;75707;46.948;7.410;2024-03-06T00:39:49;0.899999976;;;0.5;;
85301;SDS011;75707;46.948;7.410;2024-03-06T00:40:50;0.800000012;;;0.600000024;;
85301;SDS011;75707;46.948;7.410;2024-03-06T00:41:51;0.600000024;;;0.600000024;;
85301;SDS011;75707;46.948;7.410;2024-03-06T00:42:51;1;;;0.5;;
85301;SDS011;75707;46.948;7.410;2024-03-06T00:43:52;0.699999988;;;0.699999988;;
85301;SDS011;75707;46.948;7.410;2024-03-06T00:44:53;1;;;0.5;;
85301;SDS011;75707;46.948;7.410;2024-03-06T00:45:53;1.100000024;;;0.600000024;;
85301;SDS011;75707;46.948;7.410;2024-03-06T00:46:54;0.899999976;;;0.5;;
85301;SDS011;75707;46.948;7.410;2024-03-06T00:47:55;1.799999952;;;1.100000024;;
85301;SDS011;75707;46.948;7.410;2024-03-06T00:49:26;1.299999952;;;0.5;;
85301;SDS011;75707;46.948;7.410;2024-03-06T00:50:27;0.400000006;;;0.400000006;;
85301;SDS011;75707;46.948;7.410;2024-03-06T00:51:27;1.299999952;;;0.600000024;;
85301;SDS011;75707;46.948;7.410;2024-03-06T00:52:28;1.200000048;;;0.5;;
85301;SDS011;75707;46.948;7.410;2024-03-06T00:53:29;0.699999988;;;0.600000024;;
85301;SDS011;75707;46.948;7.410;2024-03-06T00:54:29;1.399999976;;;0.600000024;;
85301;SDS011;75707;46.948;7.410;2024-03-06T00:55:30;0.800000012;;;0.800000012;;
85301;SDS011;75707;46.948;7.410;2024-03-06T00:56:31;0.899999976;;;0.5;;
85301;SDS011;75707;46.948;7.410;2024-03-06T00:57:32;0.899999976;;;0.400000006;;
85301;SDS011;75707;46.948;7.410;2024-03-06T00:58:32;0.800000012;;;0.699999988;;
85301;SDS011;75707;46.948;7.410;2024-03-06T00:59:33;0.5;;;0.5;;
85301;SDS011;75707;46.948;7.410;2024-03-06T01:00:34;1.399999976;;;0.600000024;;
85301;SDS011;75707;46.948;7.410;2024-03-06T01:01:34;1.100000024;;;0.5;;
85301;SDS011;75707;46.948;7.410;2024-03-06T01:02:35;1.100000024;;;0.600000024;;
85301;SDS011;75707;46.948;7.410;2024-03-06T01:03:37;0.5;;;0.5;;
85301;SDS011;75707;46.948;7.410;2024-03-06T01:04:36;0.600000024;;;0.400000006;;
85301;SDS011;75707;46.948;7.410;2024-03-06T01:05:37;0.5;;;0.5;;
85301;SDS011;75707;46.948;7.410;2024-03-06T01:06:38;1.399999976;;;0.5;;
85301;SDS011;75707;46.948;7.410;2024-03-06T01:07:39;1.100000024;;;0.600000024;;
85301;SDS011;75707;46.948;7.410;2024-03-06T01:08:39;1.600000024;;;0.800000012;;
85301;SDS011;75707;46.948;7.410;2024-03-06T01:09:40;1.399999976;;;0.600000024;;
85301;SDS011;75707;46.948;7.410;2024-03-06T01:10:41;1;;;0.899999976;;
85301;SDS011;75707;46.948;7.410;2024-03-06T01:11:41;0.899999976;;;0.600000024;;
85301;SDS011;75707;46.948;7.410;2024-03-06T01:12:42;0.699999988;;;0.5;;
85301;SDS011;75707;46.948;7.410;2024-03-06T01:13:43;0.800000012;;;0.600000024;;
85301;SDS011;75707;46.948;7.410;2024-03-06T01:14:44;0.800000012;;;0.800000012;;
85301;SDS011;75707;46.948;7.410;2024-03-06T01:15:44;0.5;;;0.5;;
85301;SDS011;75707;46.948;7.410;2024-03-06T01:16:45;0.699999988;;;0.699999988;;
85301;SDS011;75707;46.948;7.410;2024-03-06T01:17:45;0.800000012;;;0.600000024;;
85301;SDS011;75707;46.948;7.410;2024-03-06T01:18:46;0.699999988;;;0.5;;
85301;SDS011;75707;46.948;7.410;2024-03-06T01:19:46;1.100000024;;;0.699999988;;
85301;SDS011;75707;46.948;7.410;2024-03-06T01:20:47;0.600000024;;;0.600000024;;
85301;SDS011;75707;46.948;7.410;2024-03-06T01:21:48;0.699999988;;;0.699999988;;
85301;SDS011;75707;46.948;7.410;2024-03-06T01:22:49;0.899999976;;;0.600000024;;
85301;SDS011;75707;46.948;7.410;2024-03-06T01:23:49;1.5;;;0.600000024;;
85301;SDS011;75707;46.948;7.410;2024-03-06T01:24:50;0.899999976;;;0.600000024;;
85301;SDS011;75707;46.948;7.410;2024-03-06T01:25:51;1.299999952;;;0.899999976;;
85301;SDS011;75707;46.948;7.410;2024-03-06T01:26:51;1.100000024;;;0.899999976;;
85301;SDS011;75707;46.948;7.410;2024-03-06T01:27:52;0.899999976;;;0.600000024;;
85301;SDS011;75707;46.948;7.410;2024-03-06T01:28:53;1.700000048;;;0.699999988;;
85301;SDS011;75707;46.948;7.410;2024-03-06T01:29:53;0.800000012;;;0.699999988;;
85301;SDS011;75707;46.948;7.410;2024-03-06T01:30:54;0.600000024;;;0.600000024;;
85301;SDS011;75707;46.948;7.410;2024-03-06T01:32:25;1;;;0.699999988;;
85301;SDS011;75707;46.948;7.410;2024-03-06T01:33:26;0.5;;;0.5;;
85301;SDS011;75707;46.948;7.410;2024-03-06T01:34:26;0.800000012;;;0.699999988;;
85301;SDS011;75707;46.948;7.410;2024-03-06T01:36:28;1.200000048;;;0.5;;
85301;SDS011;75707;46.948;7.410;2024-03-06T01:37:28;0.699999988;;;0.699999988;;
85301;SDS011;75707;46.948;7.410;2024-03-06T01:38:29;1.299999952;;;0.800000012;;
85301;SDS011;75707;46.948;7.410;2024-03-06T01:39:30;1.200000048;;;0.800000012;;
85301;SDS011;75707;46.948;7.410;2024-03-06T01:40:30;0.899999976;;;0.699999988;;
85301;SDS011;75707;46.948;7.410;2024-03-06T01:41:31;0.699999988;;;0.699999988;;
85301;SDS011;75707;46.948;7.410;2024-03-06T01:42:32;0.600000024;;;0.600000024;;
85301;SDS011;75707;46.948;7.410;2024-03-06T01:43:36;1.700000048;;;0.699999988;;
85301;SDS011;75707;46.948;7.410;2024-03-06T01:44:33;0.800000012;;;0.800000012;;
85301;SDS011;75707;46.948;7.410;2024-03-06T01:45:33;1;;;0.899999976;;
85301;SDS011;75707;46.948;7.410;2024-03-06T01:46:34;0.800000012;;;0.800000012;;
85301;SDS011;75707;46.948;7.410;2024-03-06T01:47:35;0.699999988;;;0.699999988;;
85301;SDS011;75707;46.948;7.410;2024-03-06T01:48:35;1;;;0.899999976;;
85301;SDS011;75707;46.948;7.410;2024-03-06T01:49:36;0.899999976;;;0.899999976;;
85301;SDS011;75707;46.948;7.410;2024-03-06T01:50:37;1;;;0.699999988;;
85301;SDS011;75707;46.948;7.410;2024-03-06T01:51:38;1.200000048;;;0.699999988;;
85301;SDS011;75707;46.948;7.410;2024-03-06T01:52:38;0.800000012;;;0.800000012;;
85301;SDS011;75707;46.948;7.410;2024-03-06T01:54:40;1;;;0.800000012;;
85301;SDS011;75707;46.948;7.410;2024-03-06T01:55:40;1.600000024;;;0.899999976;;
85301;SDS011;75707;46.948;7.410;2024-03-06T01:56:43;1;;;0.899999976;;
85301;SDS011;75707;46.948;7.410;2024-03-06T01:57:42;0.800000012;;;0.800000012;;
85301;SDS011;75707;46.948;7.410;2024-03-06T01:58:42;1.100000024;;;1;;
85301;SDS011;75707;46.948;7.410;2024-03-06T01:59:43;1.600000024;;;1.100000024;;
85301;SDS011;75707;46.948;7.410;2024-03-06T02:00:44;0.899999976;;;0.899999976;;
85301;SDS011;75707;46.948;7.410;2024-03-06T02:01:44;1;;;0.800000012;;
85301;SDS011;75707;46.948;7.410;2024-03-06T02:02:45;1.100000024;;;0.800000012;;
85301;SDS011;75707;46.948;7.410;2024-03-06T02:03:46;0.899999976;;;0.899999976;;
85301;SDS011;75707;46.948;7.410;2024-03-06T02:04:46;1.200000048;;;1.100000024;;
85301;SDS011;75707;46.948;7.410;2024-03-06T02:05:47;0.899999976;;;0.899999976;;
85301;SDS011;75707;46.948;7.410;2024-03-06T02:06:47;1;;;1;;
85301;SDS011;75707;46.948;7.410;2024-03-06T02:07:48;3.200000048;;;0.899999976;;
85301;SDS011;75707;46.948;7.410;2024-03-06T02:08:49;1.100000024;;;1.100000024;;
85301;SDS011;75707;46.948;7.410;2024-03-06T02:09:50;1.299999952;;;1.200000048;;
85301;SDS011;75707;46.948;7.410;2024-03-06T02:10:50;1.200000048;;;1.100000024;;
85301;SDS011;75707;46.948;7.410;2024-03-06T02:11:51;1;;;1;;
85301;SDS011;75707;46.948;7.410;2024-03-06T02:12:52;0.899999976;;;0.899999976;;
85301;SDS011;75707;46.948;7.410;2024-03-06T02:13:52;1.100000024;;;1.100000024;;
85301;SDS011;75707;46.948;7.410;2024-03-06T02:14:53;0.899999976;;;0.899999976;;
85301;SDS011;75707;46.948;7.410;2024-03-06T02:15:54;0.800000012;;;0.800000012;;
85301;SDS011;75707;46.948;7.410;2024-03-06T02:17:25;0.899999976;;;0.899999976;;
85301;SDS011;75707;46.948;7.410;2024-03-06T02:18:26;1.600000024;;;1.100000024;;
85301;SDS011;75707;46.948;7.410;2024-03-06T02:19:36;0.899999976;;;0.899999976;;
85301;SDS011;75707;46.948;7.410;2024-03-06T02:20:27;1;;;1;;
85301;SDS011;75707;46.948;7.410;2024-03-06T02:21:28;1.299999952;;;1.200000048;;
85301;SDS011;75707;46.948;7.410;2024-03-06T02:22:59;1.399999976;;;1.299999952;;
85301;SDS011;75707;46.948;7.410;2024-03-06T02:24:30;1.100000024;;;1.100000024;;
85301;SDS011;75707;46.948;7.410;2024-03-06T02:25:30;1.299999952;;;1.100000024;;
85301;SDS011;75707;46.948;7.410;2024-03-06T02:26:31;1.100000024;;;1.100000024;;
85301;SDS011;75707;46.948;7.410;2024-03-06T02:27:32;1.200000048;;;1.200000048;;
85301;SDS011;75707;46.948;7.410;2024-03-06T02:28:32;1.5;;;1.399999976;;
85301;SDS011;75707;46.948;7.410;2024-03-06T02:29:33;1.100000024;;;1.100000024;;
85301;SDS011;75707;46.948;7.410;2024-03-06T02:30:34;1.5;;;1.299999952;;
85301;SDS011;75707;46.948;7.410;2024-03-06T02:31:34;1.200000048;;;1.100000024;;
85301;SDS011;75707;46.948;7.410;2024-03-06T02:32:35;1.299999952;;;1.100000024;;
85301;SDS011;75707;46.948;7.410;2024-03-06T02:33:36;2.099999905;;;1.100000024;;
85301;SDS011;75707;46.948;7.410;2024-03-06T02:34:36;1.200000048;;;1.200000048;;
85301;SDS011;75707;46.948;7.410;2024-03-06T02:35:37;1.100000024;;;1.100000024;;
85301;SDS011;75707;46.948;7.410;2024-03-06T02:36:38;1;;;1;;
85301;SDS011;75707;46.948;7.410;2024-03-06T02:38:39;1.100000024;;;1.100000024;;
85301;SDS011;75707;46.948;7.410;2024-03-06T02:39:40;2.599999905;;;1;;
85301;SDS011;75707;46.948;7.410;2024-03-06T02:40:42;1.100000024;;;0.800000012;;
85301;SDS011;75707;46.948;7.410;2024-03-06T02:41:41;1;;;0.899999976;;
85301;SDS011;75707;46.948;7.410;2024-03-06T02:42:42;1;;;0.800000012;;
85301;SDS011;75707;46.948;7.410;2024-03-06T02:43:42;0.800000012;;;0.800000012;;
85301;SDS011;75707;46.948;7.410;2024-03-06T02:44:43;0.699999988;;;0.699999988;;
85301;SDS011;75707;46.948;7.410;2024-03-06T02:45:44;1.100000024;;;0.800000012;;
85301;SDS011;75707;46.948;7.410;2024-03-06T02:46:46;0.800000012;;;0.800000012;;
85301;SDS011;75707;46.948;7.410;2024-03-06T02:47:45;0.699999988;;;0.699999988;;
85301;SDS011;75707;46.948;7.410;2024-03-06T02:48:46;1;;;0.800000012;;
85301;SDS011;75707;46.948;7.410;2024-03-06T02:49:46;2.099999905;;;0.699999988;;
85301;SDS011;75707;46.948;7.410;2024-03-06T02:50:47;0.600000024;;;0.600000024;;
85301;SDS011;75707;46.948;7.410;2024-03-06T02:51:48;0.699999988;;;0.699999988;;
85301;SDS011;75707;46.948;7.410;2024-03-06T02:52:48;0.600000024;;;0.600000024;;
85301;SDS011;75707;46.948;7.410;2024-03-06T02:53:49;0.800000012;;;0.800000012;;
85301;SDS011;75707;46.948;7.410;2024-03-06T02:55:50;0.800000012;;;0.600000024;;
85301;SDS011;75707;46.948;7.410;2024-03-06T02:56:51;0.600000024;;;0.600000024;;
85301;SDS011;75707;46.948;7.410;2024-03-06T02:57:52;0.899999976;;;0.899999976;;
85301;SDS011;75707;46.948;7.410;2024-03-06T02:58:53;0.600000024;;;0.600000024;;
85301;SDS011;75707;46.948;7.410;2024-03-06T03:00:24;1;;;0.899999976;;
85301;SDS011;75707;46.948;7.410;2024-03-06T03:01:25;1.5;;;1.399999976;;
85301;SDS011;75707;46.948;7.410;2024-03-06T03:02:25;1.299999952;;;0.899999976;;
85301;SDS011;75707;46.948;7.410;2024-03-06T03:03:26;1.100000024;;;1;;
85301;SDS011;75707;46.948;7.410;2024-03-06T03:04:27;1.700000048;;;0.699999988;;
85301;SDS011;75707;46.948;7.410;2024-03-06T03:05:27;0.800000012;;;0.600000024;;
85301;SDS011;75707;46.948;7.410;2024-03-06T03:06:28;0.899999976;;;0.600000024;;
85301;SDS011;75707;46.948;7.410;2024-03-06T03:07:29;0.600000024;;;0.600000024;;
85301;SDS011;75707;46.948;7.410;2024-03-06T03:10:31;0.699999988;;;0.600000024;;
85301;SDS011;75707;46.948;7.410;2024-03-06T03:11:31;0.699999988;;;0.699999988;;
85301;SDS011;75707;46.948;7.410;2024-03-06T03:14:33;1.299999952;;;0.699999988;;
85301;SDS011;75707;46.948;7.410;2024-03-06T03:15:34;0.600000024;;;0.600000024;;
85301;SDS011;75707;46.948;7.410;2024-03-06T03:16:35;1.100000024;;;0.800000012;;
85301;SDS011;75707;46.948;7.410;2024-03-06T03:17:35;0.800000012;;;0.600000024;;
85301;SDS011;75707;46.948;7.410;2024-03-06T03:18:36;0.899999976;;;0.699999988;;
85301;SDS011;75707;46.948;7.410;2024-03-06T03:19:37;0.699999988;;;0.699999988;;
85301;SDS011;75707;46.948;7.410;2024-03-06T03:20:37;0.699999988;;;0.5;;
85301;SDS011;75707;46.948;7.410;2024-03-06T03:21:38;1.100000024;;;0.600000024;;
85301;SDS011;75707;46.948;7.410;2024-03-06T03:22:39;0.800000012;;;0.699999988;;
85301;SDS011;75707;46.948;7.410;2024-03-06T03:24:41;0.699999988;;;0.699999988;;
85301;SDS011;75707;46.948;7.410;2024-03-06T03:25:41;0.899999976;;;0.699999988;;
85301;SDS011;75707;46.948;7.410;2024-03-06T03:26:41;1.100000024;;;0.800000012;;
85301;SDS011;75707;46.948;7.410;2024-03-06T03:27:42;0.699999988;;;0.699999988;;
85301;SDS011;75707;46.948;7.410;2024-03-06T03:28:43;0.600000024;;;0.600000024;;
85301;SDS011;75707;46.948;7.410;2024-03-06T03:29:43;0.699999988;;;0.699999988;;
85301;SDS011;75707;46.948;7.410;2024-03-06T03:30:44;1;;;0.600000024;;
85301;SDS011;75707;46.948;7.410;2024-03-06T03:31:45;0.699999988;;;0.699999988;;
85301;SDS011;75707;46.948;7.410;2024-03-06T03:32:45;1.100000024;;;0.800000012;;
85301;SDS011;75707;46.948;7.410;2024-03-06T03:33:46;0.699999988;;;0.699999988;;
85301;SDS011;75707;46.948;7.410;2024-03-06T03:34:47;0.800000012;;;0.800000012;;
85301;SDS011;75707;46.948;7.410;2024-03-06T03:35:47;1.299999952;;;0.800000012;;
85301;SDS011;75707;46.948;7.410;2024-03-06T03:36:48;0.800000012;;;0.600000024;;
85301;SDS011;75707;46.948;7.410;2024-03-06T03:37:49;0.800000012;;;0.699999988;;
85301;SDS011;75707;46.948;7.410;2024-03-06T03:38:49;0.699999988;;;0.699999988;;
85301;SDS011;75707;46.948;7.410;2024-03-06T03:40:51;0.800000012;;;0.699999988;;
85301;SDS011;75707;46.948;7.410;2024-03-06T03:41:52;0.899999976;;;0.899999976;;
85301;SDS011;75707;46.948;7.410;2024-03-06T03:43:23;1.299999952;;;0.800000012;;
85301;SDS011;75707;46.948;7.410;2024-03-06T03:44:24;1.700000048;;;1.200000048;;
85301;SDS011;75707;46.948;7.410;2024-03-06T03:45:24;2;;;1.5;;
85301;SDS011;75707;46.948;7.410;2024-03-06T03:46:25;1.100000024;;;1;;
85301;SDS011;75707;46.948;7.410;2024-03-06T03:48:26;1;;;1;;
85301;SDS011;75707;46.948;7.410;2024-03-06T03:49:27;1.200000048;;;1.100000024;;
85301;SDS011;75707;46.948;7.410;2024-03-06T03:51:28;1;;;1;;
85301;SDS011;75707;46.948;7.410;2024-03-06T03:52:29;1.299999952;;;1.200000048;;
85301;SDS011;75707;46.948;7.410;2024-03-06T03:53:30;1.200000048;;;1.100000024;;
85301;SDS011;75707;46.948;7.410;2024-03-06T03:54:30;1.100000024;;;1.100000024;;
85301;SDS011;75707;46.948;7.410;2024-03-06T03:55:31;1.200000048;;;1.100000024;;
85301;SDS011;75707;46.948;7.410;2024-03-06T03:56:32;1.399999976;;;1.200000048;;
85301;SDS011;75707;46.948;7.410;2024-03-06T03:57:32;1.200000048;;;1.100000024;;
85301;SDS011;75707;46.948;7.410;2024-03-06T03:58:33;1;;;0.899999976;;
85301;SDS011;75707;46.948;7.410;2024-03-06T03:59:34;0.899999976;;;0.800000012;;
85301;SDS011;75707;46.948;7.410;2024-03-06T04:00:35;0.800000012;;;0.800000012;;
85301;SDS011;75707;46.948;7.410;2024-03-06T04:01:35;0.899999976;;;0.899999976;;
85301;SDS011;75707;46.948;7.410;2024-03-06T04:02:36;1;;;0.899999976;;
85301;SDS011;75707;46.948;7.410;2024-03-06T04:03:37;1.299999952;;;1;;
85301;SDS011;75707;46.948;7.410;2024-03-06T04:04:37;0.899999976;;;0.899999976;;
85301;SDS011;75707;46.948;7.410;2024-03-06T04:06:39;1.200000048;;;1;;
85301;SDS011;75707;46.948;7.410;2024-03-06T04:07:39;1.200000048;;;1.100000024;;
85301;SDS011;75707;46.948;7.410;2024-03-06T04:08:40;0.899999976;;;0.899999976;;
85301;SDS011;75707;46.948;7.410;2024-03-06T04:09:40;1.5;;;0.800000012;;
85301;SDS011;75707;46.948;7.410;2024-03-06T04:10:41;1.200000048;;;1;;
85301;SDS011;75707;46.948;7.410;2024-03-06T04:12:42;1.899999976;;;1;;
85301;SDS011;75707;46.948;7.410;2024-03-06T04:13:43;1.200000048;;;1.100000024;;
85301;SDS011;75707;46.948;7.410;2024-03-06T04:15:44;0.899999976;;;0.899999976;;
85301;SDS011;75707;46.948;7.410;2024-03-06T04:16:45;1.5;;;1;;
85301;SDS011;75707;46.948;7.410;2024-03-06T04:17:46;2;;;1;;
85301;SDS011;75707;46.948;7.410;2024-03-06T04:18:46;0.899999976;;;0.899999976;;
85301;SDS011;75707;46.948;7.410;2024-03-06T04:19:47;1.100000024;;;1.100000024;;
85301;SDS011;75707;46.948;7.410;2024-03-06T04:20:48;1.399999976;;;1.100000024;;
85301;SDS011;75707;46.948;7.410;2024-03-06T04:21:48;1;;;1;;
85301;SDS011;75707;46.948;7.410;2024-03-06T04:22:49;0.899999976;;;0.899999976;;
85301;SDS011;75707;46.948;7.410;2024-03-06T04:23:50;0.800000012;;;0.800000012;;
85301;SDS011;75707;46.948;7.410;2024-03-06T04:24:51;1.299999952;;;1.200000048;;
85301;SDS011;75707;46.948;7.410;2024-03-06T04:25:51;1.700000048;;;0.800000012;;
85301;SDS011;75707;46.948;7.410;2024-03-06T04:26:52;1.200000048;;;1.100000024;;
85301;SDS011;75707;46.948;7.410;2024-03-06T04:28:23;1.399999976;;;1;;
85301;SDS011;75707;46.948;7.410;2024-03-06T04:29:24;1.200000048;;;1.200000048;;
85301;SDS011;75707;46.948;7.410;2024-03-06T04:30:24;1.200000048;;;0.899999976;;
85301;SDS011;75707;46.948;7.410;2024-03-06T04:31:25;1.399999976;;;1;;
85301;SDS011;75707;46.948;7.410;2024-03-06T04:32:26;0.899999976;;;0.899999976;;
85301;SDS011;75707;46.948;7.410;2024-03-06T04:33:27;1.299999952;;;1.200000048;;
85301;SDS011;75707;46.948;7.410;2024-03-06T04:34:27;4.5;;;1.5;;
85301;SDS011;75707;46.948;7.410;2024-03-06T04:35:28;1.700000048;;;1.600000024;;
85301;SDS011;75707;46.948;7.410;2024-03-06T04:36:29;1.399999976;;;1.299999952;;
85301;SDS011;75707;46.948;7.410;2024-03-06T04:37:29;1.600000024;;;1.5;;
85301;SDS011;75707;46.948;7.410;2024-03-06T04:38:30;1.700000048;;;1.600000024;;
85301;SDS011;75707;46.948;7.410;2024-03-06T04:39:31;1.600000024;;;1.5;;
85301;SDS011;75707;46.948;7.410;2024-03-06T04:41:32;1.899999976;;;1.799999952;;
85301;SDS011;75707;46.948;7.410;2024-03-06T04:42:33;1.700000048;;;1.600000024;;
85301;SDS011;75707;46.948;7.410;2024-03-06T04:44:34;1.899999976;;;1.799999952;;
85301;SDS011;75707;46.948;7.410;2024-03-06T04:45:35;1.799999952;;;1.700000048;;
85301;SDS011;75707;46.948;7.410;2024-03-06T04:47:36;1.899999976;;;1.799999952;;
85301;SDS011;75707;46.948;7.410;2024-03-06T04:49:37;1.700000048;;;1.600000024;;
85301;SDS011;75707;46.948;7.410;2024-03-06T04:50:38;1.799999952;;;1.700000048;;
85301;SDS011;75707;46.948;7.410;2024-03-06T04:52:39;1.899999976;;;1.799999952;;
85301;SDS011;75707;46.948;7.410;2024-03-06T04:53:40;1.700000048;;;1.600000024;;
85301;SDS011;75707;46.948;7.410;2024-03-06T04:54:41;1.799999952;;;1.700000048;;
85301;SDS011;75707;46.948;7.410;2024-03-06T04:56:42;1.899999976;;;1.700000048;;
85301;SDS011;75707;46.948;7.410;2024-03-06T04:57:43;1.799999952;;;1.700000048;;
85301;SDS011;75707;46.948;7.410;2024-03-06T04:58:43;1.5;;;1.399999976;;
85301;SDS011;75707;46.948;7.410;2024-03-06T04:59:44;1.600000024;;;1.5;;
85301;SDS011;75707;46.948;7.410;2024-03-06T05:00:45;1.899999976;;;1.799999952;;
85301;SDS011;75707;46.948;7.410;2024-03-06T05:01:45;1.700000048;;;1.600000024;;
85301;SDS011;75707;46.948;7.410;2024-03-06T05:02:46;1.799999952;;;1.700000048;;
85301;SDS011;75707;46.948;7.410;2024-03-06T05:04:47;1.5;;;1.399999976;;
85301;SDS011;75707;46.948;7.410;2024-03-06T05:05:48;1.700000048;;;1.600000024;;
85301;SDS011;75707;46.948;7.410;2024-03-06T05:07:49;1.600000024;;;1.5;;
85301;SDS011;75707;46.948;7.410;2024-03-06T05:08:50;1.399999976;;;1.299999952;;
85301;SDS011;75707;46.948;7.410;2024-03-06T05:09:50;1.600000024;;;1.399999976;;
85301;SDS011;75707;46.948;7.410;2024-03-06T05:10:51;1.399999976;;;1.299999952;;
85301;SDS011;75707;46.948;7.410;2024-03-06T05:11:51;1.600000024;;;1.5;;
85301;SDS011;75707;46.948;7.410;2024-03-06T05:14:23;2.599999905;;;1.399999976;;
85301;SDS011;75707;46.948;7.410;2024-03-06T05:15:24;2;;;1.5;;
85301;SDS011;75707;46.948;7.410;2024-03-06T05:16:24;1.600000024;;;1.5;;
85301;SDS011;75707;46.948;7.410;2024-03-06T05:17:25;1.5;;;1.399999976;;
85301;SDS011;75707;46.948;7.410;2024-03-06T05:18:26;1.399999976;;;1.299999952;;
85301;SDS011;75707;46.948;7.410;2024-03-06T05:19:27;2.099999905;;;1.399999976;;
85301;SDS011;75707;46.948;7.410;2024-03-06T05:20:27;1.600000024;;;1.299999952;;
85301;SDS011;75707;46.948;7.410;2024-03-06T05:21:28;1.5;;;1.399999976;;
85301;SDS011;75707;46.948;7.410;2024-03-06T05:22:29;1.399999976;;;1.299999952;;
85301;SDS011;75707;46.948;7.410;2024-03-06T05:24:30;1.299999952;;;1.200000048;;
85301;SDS011;75707;46.948;7.410;2024-03-06T05:25:30;1.5;;;1.399999976;;
85301;SDS011;75707;46.948;7.410;2024-03-06T05:26:31;1.799999952;;;1.700000048;;
85301;SDS011;75707;46.948;7.410;2024-03-06T05:27:32;1.399999976;;;1.299999952;;
85301;SDS011;75707;46.948;7.410;2024-03-06T05:28:32;1.600000024;;;1.5;;
85301;SDS011;75707;46.948;7.410;2024-03-06T05:29:33;1.799999952;;;1.700000048;;
85301;SDS011;75707;46.948;7.410;2024-03-06T05:30:34;1.600000024;;;1.5;;
85301;SDS011;75707;46.948;7.410;2024-03-06T05:31:34;1.799999952;;;1.700000048;;
85301;SDS011;75707;46.948;7.410;2024-03-06T05:32:35;1.899999976;;;1.799999952;;
85301;SDS011;75707;46.948;7.410;2024-03-06T05:33:36;1.799999952;;;1.700000048;;
85301;SDS011;75707;46.948;7.410;2024-03-06T05:34:36;2;;;1.899999976;;
85301;SDS011;75707;46.948;7.410;2024-03-06T05:35:37;2.099999905;;;2;;
85301;SDS011;75707;46.948;7.410;2024-03-06T05:36:38;1.899999976;;;1.799999952;;
85301;SDS011;75707;46.948;7.410;2024-03-06T05:37:38;1.799999952;;;1.700000048;;
85301;SDS011;75707;46.948;7.410;2024-03-06T05:38:39;2.099999905;;;2;;
85301;SDS011;75707;46.948;7.410;2024-03-06T05:39:40;1.700000048;;;1.600000024;;
85301;SDS011;75707;46.948;7.410;2024-03-06T05:40:40;2.099999905;;;1.700000048;;
85301;SDS011;75707;46.948;7.410;2024-03-06T05:41:41;1.399999976;;;1.299999952;;
85301;SDS011;75707;46.948;7.410;2024-03-06T05:42:42;1.5;;;1.399999976;;
85301;SDS011;75707;46.948;7.410;2024-03-06T05:44:43;2;;;1.600000024;;
85301;SDS011;75707;46.948;7.410;2024-03-06T05:45:44;2.299999952;;;1.600000024;;
85301;SDS011;75707;46.948;7.410;2024-03-06T05:46:45;1.600000024;;;1.5;;
85301;SDS011;75707;46.948;7.410;2024-03-06T05:47:46;2.200000048;;;1.399999976;;